Time;durP1;ratioP1;P1;durP2;ratioP2;P2;SDS_P1;SDS_P2;PMS_P1;PMS_P2;Temp;Humidity;BMP_temperature;BMP_pressure;BME280_temperature;BME280_humidity;BME280_pressure;Samples;Min_cycle;Max_cycle;Signal;HPM_P1;HPM_P2
2023/03/01 00:01:20;;;;;;;2.75;1.90;;;18.50;1.00;;;;;;5095999;28;20048;-36
2023/03/01 00:03:47;;;;;;;3.90;1.90;;;18.50;1.00;;;;;;5095263;28;20506;-36
2023/03/01 00:06:14;;;;;;;4.35;2.33;;;18.40;1.00;;;;;;5095822;28;20051;-36
2023/03/01 00:08:41;;;;;;;3.20;2.00;;;18.40;1.00;;;;;;5095961;28;20525;-36
2023/03/01 00:11:14;;;;;;;4.68;2.17;;;18.30;1.00;;;;;;5095697;28;20085;-36
2023/03/01 00:13:42;;;;;;;4.32;2.40;;;18.30;1.00;;;;;;5095191;28;20538;-36
2023/03/01 00:16:18;;;;;;;4.05;2.25;;;18.30;1.00;;;;;;5077419;28;20460;-36
2023/03/01 00:18:45;;;;;;;4.57;2.15;;;18.20;1.00;;;;;;5095849;28;20070;-36
2023/03/01 00:21:12;;;;;;;4.28;2.05;;;18.20;1.00;;;;;;5104465;22;20040;-37
2023/03/01 00:23:39;;;;;;;4.45;2.05;;;18.20;1.00;;;;;;5074452;28;20466;-37
2023/03/01 00:26:09;;;;;;;6.72;2.42;;;18.10;1.00;;;;;;5080900;28;20040;-38
2023/03/01 00:28:38;;;;;;;3.92;1.70;;;18.10;1.00;;;;;;5095478;28;20548;-38
2023/03/01 00:31:12;;;;;;;3.45;2.00;;;18.00;1.00;;;;;;5087694;28;20064;-38
2023/03/01 00:33:40;;;;;;;4.00;2.13;;;18.00;1.00;;;;;;5074547;28;20047;-37
2023/03/01 00:36:08;;;;;;;2.90;2.10;;;18.00;1.00;;;;;;5057173;28;20052;-37
2023/03/01 00:38:36;;;;;;;3.28;1.90;;;18.00;1.00;;;;;;5057126;28;20049;-38
2023/03/01 00:41:09;;;;;;;4.15;1.95;;;17.90;1.00;;;;;;5074820;28;20575;-37
2023/03/01 00:43:37;;;;;;;3.92;1.98;;;17.90;1.00;;;;;;5056230;28;20465;-38
2023/03/01 00:46:06;;;;;;;4.32;2.45;;;17.80;1.00;;;;;;5074982;28;20055;-38
2023/03/01 00:48:33;;;;;;;3.53;2.47;;;17.80;1.00;;;;;;5046266;28;20080;-38
2023/03/01 00:51:06;;;;;;;4.55;2.35;;;17.70;1.00;;;;;;5071776;28;20045;-38
2023/03/01 00:53:34;;;;;;;4.45;2.50;;;17.70;1.00;;;;;;5056012;28;20045;-37
2023/03/01 00:56:01;;;;;;;2.95;1.83;;;17.70;1.00;;;;;;5074757;28;20151;-38
2023/03/01 00:58:28;;;;;;;3.63;2.00;;;17.70;1.00;;;;;;5074611;28;20082;-38
2023/03/01 01:00:55;;;;;;;4.85;2.30;;;17.60;1.00;;;;;;5056220;28;20558;-38
2023/03/01 01:03:24;;;;;;;3.67;2.40;;;17.60;1.00;;;;;;5073863;28;20357;-38
2023/03/01 01:05:52;;;;;;;6.75;2.28;;;17.60;1.00;;;;;;5056628;28;20122;-37
2023/03/01 01:08:20;;;;;;;4.53;2.60;;;17.50;1.00;;;;;;5073021;28;20407;-37
2023/03/01 01:10:47;;;;;;;4.38;2.10;;;17.50;1.00;;;;;;5056670;28;20047;-37
2023/03/01 01:13:15;;;;;;;4.53;2.33;;;17.50;1.00;;;;;;5073623;28;20140;-38
2023/03/01 01:15:41;;;;;;;3.35;1.95;;;17.40;1.00;;;;;;5056333;28;20047;-37
2023/03/01 01:18:08;;;;;;;4.72;2.83;;;17.40;1.00;;;;;;5056335;28;20173;-38
2023/03/01 01:20:36;;;;;;;5.05;2.00;;;17.40;1.00;;;;;;5056198;28;20048;-38
2023/03/01 01:23:05;;;;;;;5.60;2.53;;;17.40;1.00;;;;;;5072056;28;20106;-38
2023/03/01 01:25:35;;;;;;;3.45;2.13;;;17.30;1.00;;;;;;5047742;28;20139;-38
2023/03/01 01:28:01;;;;;;;3.15;2.10;;;17.30;1.00;;;;;;5074118;28;20044;-38
2023/03/01 01:30:28;;;;;;;5.75;2.55;;;17.20;1.00;;;;;;5073955;28;20119;-37
2023/03/01 01:32:55;;;;;;;4.82;2.40;;;17.20;1.00;;;;;;5055371;28;20075;-38
2023/03/01 01:35:22;;;;;;;3.92;2.00;;;17.20;1.00;;;;;;5055753;28;20040;-38
2023/03/01 01:37:48;;;;;;;4.07;2.60;;;17.20;1.00;;;;;;5056012;28;20040;-37
2023/03/01 01:40:15;;;;;;;6.47;2.58;;;17.10;1.00;;;;;;5055914;28;20556;-38
2023/03/01 01:42:42;;;;;;;3.65;2.05;;;17.10;1.00;;;;;;5055235;28;20462;-37
2023/03/01 01:45:30;;;;;;;3.13;1.98;;;17.10;1.00;;;;;;5055837;28;20052;-37
2023/03/01 01:48:03;;;;;;;5.30;2.88;;;17.10;1.00;;;;;;5055758;28;20053;-37
2023/03/01 01:50:37;;;;;;;3.60;1.92;;;17.00;1.00;;;;;;5055612;28;20049;-37
2023/03/01 01:53:12;;;;;;;3.38;2.20;;;17.00;1.00;;;;;;5072982;28;20218;-37
2023/03/01 01:55:43;;;;;;;3.22;1.85;;;17.00;1.00;;;;;;5073670;28;20044;-37
2023/03/01 01:58:12;;;;;;;4.50;2.97;;;16.90;1.00;;;;;;5055323;28;20190;-37
2023/03/01 02:00:39;;;;;;;2.95;2.15;;;16.90;1.00;;;;;;5073398;28;20049;-38
2023/03/01 02:03:12;;;;;;;4.65;2.53;;;16.90;1.00;;;;;;5072719;28;20044;-38
2023/03/01 02:05:51;;;;;;;;;;;16.80;1.00;;;;;;5055919;28;20055;-37
2023/03/01 02:08:24;;;;;;;5.47;2.70;;;16.80;1.00;;;;;;5055427;28;19971;-37
2023/03/01 02:10:52;;;;;;;2.75;1.77;;;16.80;1.00;;;;;;5055229;28;20101;-38
2023/03/01 02:13:19;;;;;;;3.80;2.35;;;16.80;1.00;;;;;;5054491;28;20122;-37
2023/03/01 02:15:46;;;;;;;3.20;1.80;;;16.70;1.00;;;;;;5055329;28;20414;-37
2023/03/01 02:18:18;;;;;;;3.33;2.05;;;16.70;1.00;;;;;;5072803;28;20041;-38
2023/03/01 02:21:08;;;;;;;3.67;2.10;;;16.70;1.00;;;;;;5055061;28;20146;-37
2023/03/01 02:23:36;;;;;;;3.63;2.15;;;16.70;1.00;;;;;;5054471;28;20070;-38
2023/03/01 02:26:31;;;;;;;4.70;2.30;;;16.60;1.00;;;;;;5054992;28;20040;-38
2023/03/01 02:28:59;;;;;;;4.25;1.90;;;16.60;1.00;;;;;;5073029;28;20491;-37
2023/03/01 02:31:44;;;;;;;4.53;2.55;;;16.50;1.00;;;;;;5072745;28;20037;-38
2023/03/01 02:34:21;;;;;;;4.82;2.33;;;16.60;1.00;;;;;;5072148;28;20106;-38
2023/03/01 02:36:53;;;;;;;4.20;2.40;;;16.50;1.00;;;;;;5072735;28;20033;-37
2023/03/01 02:39:32;;;;;;;2.90;1.85;;;16.50;1.00;;;;;;5054828;28;20067;-37
2023/03/01 02:42:01;;;;;;;5.20;2.95;;;16.50;1.00;;;;;;5054598;28;20079;-37
2023/03/01 02:44:27;;;;;;;4.97;2.55;;;16.50;1.00;;;;;;5054035;28;20052;-37
2023/03/01 02:46:56;;;;;;;2.67;1.85;;;16.40;1.00;;;;;;5054638;28;20075;-37
2023/03/01 02:49:31;;;;;;;4.72;2.13;;;16.40;1.00;;;;;;5072613;28;20052;-37
2023/03/01 02:52:19;;;;;;;3.20;1.83;;;16.40;1.00;;;;;;5069554;28;20041;-38
2023/03/01 02:55:02;;;;;;;5.07;2.20;;;16.40;1.00;;;;;;5063485;28;20052;-38
2023/03/01 02:57:31;;;;;;;3.60;2.67;;;16.30;1.00;;;;;;5054500;28;20519;-37
2023/03/01 03:00:06;;;;;;;2.88;1.73;;;16.30;1.00;;;;;;5054510;28;20045;-38
2023/03/01 03:02:35;;;;;;;2.47;1.70;;;16.30;1.00;;;;;;5054029;28;20072;-37
2023/03/01 03:05:22;;;;;;;3.35;2.17;;;16.30;1.00;;;;;;5054322;28;20075;-37
2023/03/01 03:07:53;;;;;;;2.78;2.03;;;16.30;1.00;;;;;;5054367;28;20420;-37
2023/03/01 03:10:29;;;;;;;3.20;1.88;;;16.30;1.00;;;;;;5054092;28;20068;-37
2023/03/01 03:12:59;;;;;;;2.35;1.77;;;16.30;1.00;;;;;;5071485;28;20587;-38
2023/03/01 03:15:27;;;;;;;2.70;1.67;;;16.20;1.00;;;;;;5054092;28;20070;-37
2023/03/01 03:17:56;;;;;;;3.05;1.70;;;16.20;1.00;;;;;;5072043;28;20043;-37
2023/03/01 03:20:25;;;;;;;3.72;1.95;;;16.20;1.00;;;;;;5071936;28;20045;-38
2023/03/01 03:22:54;;;;;;;3.38;1.77;;;16.20;1.00;;;;;;5071378;28;20048;-37
2023/03/01 03:25:22;;;;;;;3.10;1.45;;;16.20;1.00;;;;;;5071944;28;20071;-37
2023/03/01 03:27:56;;;;;;;3.97;2.00;;;16.10;1.00;;;;;;5071838;28;20029;-37
2023/03/01 03:30:24;;;;;;;;;;;16.10;1.00;;;;;;5071486;28;20041;-37
2023/03/01 03:32:54;;;;;;;3.63;1.77;;;16.10;1.00;;;;;;5071117;28;19931;-37
2023/03/01 03:35:33;;;;;;;3.67;2.00;;;16.00;1.00;;;;;;5071906;28;20174;-37
2023/03/01 03:38:03;;;;;;;2.92;1.70;;;16.00;1.00;;;;;;5071966;28;20062;-37
2023/03/01 03:40:36;;;;;;;3.30;1.63;;;16.00;1.00;;;;;;5071682;28;20484;-37
2023/03/01 03:43:23;;;;;;;3.22;1.55;;;16.00;1.00;;;;;;5071109;28;20055;-37
2023/03/01 03:45:51;;;;;;;3.13;2.10;;;16.00;1.00;;;;;;5071829;28;20044;-37
2023/03/01 03:48:20;;;;;;;3.65;1.92;;;16.00;1.00;;;;;;5071793;28;20066;-37
2023/03/01 03:50:52;;;;;;;3.33;1.73;;;15.90;1.00;;;;;;5071448;28;20068;-37
2023/03/01 03:53:20;;;;;;;2.70;1.65;;;15.90;1.00;;;;;;5071113;28;20459;-37
2023/03/01 03:55:49;;;;;;;2.88;1.48;;;15.90;1.00;;;;;;5071796;28;20040;-37
2023/03/01 03:58:19;;;;;;;2.25;1.63;;;15.90;1.00;;;;;;5071777;28;20033;-37
2023/03/01 04:00:49;;;;;;;2.95;1.83;;;15.90;1.00;;;;;;5071578;28;20040;-37
2023/03/01 04:03:18;;;;;;;3.38;1.48;;;15.90;1.00;;;;;;5070794;28;20541;-37
2023/03/01 04:05:45;;;;;;;2.47;1.50;;;15.80;1.00;;;;;;5071566;28;20043;-37
2023/03/01 04:08:12;;;;;;;2.90;1.80;;;15.90;1.00;;;;;;5071585;28;20040;-37
2023/03/01 04:10:45;;;;;;;2.13;1.60;;;15.80;1.00;;;;;;5071327;28;20515;-37
2023/03/01 04:13:15;;;;;;;2.15;1.58;;;15.80;1.00;;;;;;5070796;28;20098;-37
2023/03/01 04:15:45;;;;;;;3.67;1.65;;;15.80;1.00;;;;;;5071421;28;20071;-37
2023/03/01 04:18:14;;;;;;;3.78;2.13;;;15.80;1.00;;;;;;5071535;28;20098;-37
2023/03/01 04:20:41;;;;;;;3.45;1.98;;;15.80;1.00;;;;;;5071374;28;20044;-37
2023/03/01 04:23:10;;;;;;;2.97;1.63;;;15.70;1.00;;;;;;5070836;28;20060;-37
2023/03/01 04:25:45;;;;;;;2.92;1.50;;;15.70;1.00;;;;;;5071484;28;20037;-37
2023/03/01 04:28:12;;;;;;;2.78;2.10;;;15.70;1.00;;;;;;5071241;28;20055;-37
2023/03/01 04:30:39;;;;;;;2.72;1.55;;;15.70;1.00;;;;;;5071303;28;20078;-37
2023/03/01 04:33:07;;;;;;;2.78;1.30;;;15.70;1.00;;;;;;5070533;28;20048;-37
2023/03/01 04:35:35;;;;;;;2.45;1.60;;;15.60;1.00;;;;;;5071510;28;20582;-37
2023/03/01 04:38:03;;;;;;;1.73;1.10;;;15.60;1.00;;;;;;5071267;28;20048;-37
2023/03/01 04:40:30;;;;;;;2.13;1.38;;;15.60;1.00;;;;;;5071222;28;20476;-37
2023/03/01 04:42:56;;;;;;;3.13;1.55;;;15.60;1.00;;;;;;5073123;28;20055;-37
2023/03/01 04:45:24;;;;;;;2.47;1.42;;;15.60;1.00;;;;;;5074992;28;20049;-37
2023/03/01 04:47:52;;;;;;;2.20;1.45;;;15.60;1.00;;;;;;5074848;28;20044;-37
2023/03/01 04:50:23;;;;;;;2.85;1.77;;;15.60;1.00;;;;;;5074911;28;20480;-37
2023/03/01 04:52:50;;;;;;;1.70;1.20;;;15.50;1.00;;;;;;5073954;28;20407;-37
2023/03/01 04:55:17;;;;;;;2.38;1.70;;;15.60;1.00;;;;;;5074668;28;20047;-37
2023/03/01 04:57:45;;;;;;;2.10;1.52;;;15.60;1.00;;;;;;5074671;28;20036;-37
2023/03/01 05:00:19;;;;;;;2.63;1.17;;;15.60;1.00;;;;;;5074734;28;20105;-38
2023/03/01 05:02:55;;;;;;;3.17;1.80;;;15.60;1.00;;;;;;5073767;28;20048;-37
2023/03/01 05:05:44;;;;;;;3.85;1.33;;;15.70;1.00;;;;;;5074604;28;20059;-37
2023/03/01 05:08:17;;;;;;;2.70;1.52;;;15.80;1.00;;;;;;5054542;28;20076;-37
2023/03/01 05:10:51;;;;;;;2.20;1.35;;;15.90;1.00;;;;;;5060818;28;20506;-37
2023/03/01 05:13:22;;;;;;;2.05;1.33;;;16.00;1.00;;;;;;5069553;28;20400;-37
2023/03/01 05:15:58;;;;;;;3.20;1.63;;;16.10;1.00;;;;;;5066000;28;20044;-37
2023/03/01 05:18:26;;;;;;;2.88;1.33;;;16.20;1.00;;;;;;5074160;28;20090;-37
2023/03/01 05:21:03;;;;;;;2.13;1.48;;;16.30;1.00;;;;;;5074141;28;20135;-38
2023/03/01 05:23:31;;;;;;;2.03;1.20;;;16.40;1.00;;;;;;5073563;28;20496;-37
2023/03/01 05:26:00;;;;;;;4.40;1.40;;;16.40;1.00;;;;;;5074234;28;20054;-38
2023/03/01 05:28:30;;;;;;;7.65;2.00;;;16.60;1.00;;;;;;5071410;28;20047;-37
2023/03/01 05:30:57;;;;;;;5.85;2.30;;;16.60;1.00;;;;;;5073659;28;20044;-37
2023/03/01 05:33:25;;;;;;;10.20;2.70;;;16.70;1.00;;;;;;5069390;28;20061;-37
2023/03/01 05:35:53;;;;;;;5.10;1.75;;;16.70;1.00;;;;;;5069766;28;20049;-38
2023/03/01 05:38:20;;;;;;;4.95;1.77;;;16.70;1.00;;;;;;5074006;28;20062;-37
2023/03/01 05:40:48;;;;;;;3.45;1.42;;;16.70;1.00;;;;;;5073924;28;20037;-38
2023/03/01 05:43:16;;;;;;;5.65;1.98;;;16.70;1.00;;;;;;5073004;28;20048;-37
2023/03/01 05:45:44;;;;;;;7.22;1.75;;;16.80;1.00;;;;;;5073909;28;20135;-37
2023/03/01 05:48:12;;;;;;;4.00;1.38;;;16.80;1.00;;;;;;5073751;28;20124;-38
2023/03/01 05:50:43;;;;;;;4.15;1.70;;;16.80;1.00;;;;;;5073683;28;20131;-37
2023/03/01 05:53:13;;;;;;;2.28;1.30;;;16.80;1.00;;;;;;5072146;28;20102;-37
2023/03/01 05:55:40;;;;;;;3.22;1.45;;;16.80;1.00;;;;;;5073708;28;20115;-37
2023/03/01 05:58:11;;;;;;;4.72;1.63;;;16.80;1.00;;;;;;5071162;28;20037;-37
2023/03/01 06:00:38;;;;;;;6.30;1.85;;;16.70;1.00;;;;;;5071822;28;20044;-37
2023/03/01 06:03:05;;;;;;;2.50;1.38;;;16.80;1.00;;;;;;5063900;28;20045;-37
2023/03/01 06:05:32;;;;;;;2.22;1.67;;;16.80;1.00;;;;;;5073498;28;20040;-37
2023/03/01 06:08:00;;;;;;;2.22;1.23;;;16.70;1.00;;;;;;5073422;28;20076;-37
2023/03/01 06:10:27;;;;;;;2.25;1.33;;;16.70;1.00;;;;;;5073167;28;20075;-38
2023/03/01 06:12:55;;;;;;;4.78;1.75;;;16.70;1.00;;;;;;5072545;28;20040;-38
2023/03/01 06:15:22;;;;;;;5.32;1.60;;;16.70;1.00;;;;;;5073299;28;20068;-38
2023/03/01 06:17:50;;;;;;;4.30;2.28;;;16.70;1.00;;;;;;5073144;28;20064;-38
2023/03/01 06:20:19;;;;;;;2.95;1.40;;;16.60;1.00;;;;;;5073095;28;20051;-38
2023/03/01 06:22:47;;;;;;;3.40;1.88;;;16.60;1.00;;;;;;5072131;28;20045;-37
2023/03/01 06:25:17;;;;;;;3.95;1.70;;;16.50;1.00;;;;;;5064681;28;20132;-37
2023/03/01 06:27:44;;;;;;;2.47;1.73;;;16.50;1.00;;;;;;5057890;28;20080;-37
2023/03/01 06:30:13;;;;;;;3.60;1.98;;;16.50;1.00;;;;;;5051852;28;20121;-37
2023/03/01 06:32:44;;;;;;;2.50;1.52;;;16.50;1.00;;;;;;5070156;28;20050;-38
2023/03/01 06:35:13;;;;;;;3.60;1.92;;;16.50;1.00;;;;;;5072735;28;20063;-37
2023/03/01 06:37:40;;;;;;;3.78;1.60;;;16.50;1.00;;;;;;5072671;28;20128;-39
2023/03/01 06:40:08;;;;;;;2.15;1.50;;;16.40;1.00;;;;;;5072915;28;20442;-39
2023/03/01 06:42:35;;;;;;;2.03;1.50;;;16.40;1.00;;;;;;5054266;28;20941;-39
2023/03/01 06:45:04;;;;;;;4.78;1.85;;;16.30;1.00;;;;;;5072337;28;20040;-39
2023/03/01 06:47:35;;;;;;;2.63;1.88;;;16.30;1.00;;;;;;5072624;28;20044;-39
2023/03/01 06:50:03;;;;;;;2.88;1.98;;;16.30;1.00;;;;;;5072448;28;20056;-39
2023/03/01 06:52:31;;;;;;;4.18;2.33;;;16.30;1.00;;;;;;5071894;28;20046;-39
2023/03/01 06:54:58;;;;;;;2.90;1.70;;;16.20;1.00;;;;;;5072113;28;20450;-39
2023/03/01 06:57:25;;;;;;;2.58;2.13;;;16.20;1.00;;;;;;5072443;28;20502;-39
2023/03/01 06:59:52;;;;;;;3.13;2.00;;;16.20;1.00;;;;;;5071972;28;20446;-39
2023/03/01 07:02:19;;;;;;;3.05;1.92;;;16.20;1.00;;;;;;5071789;28;20076;-39
2023/03/01 07:04:46;;;;;;;3.60;2.28;;;16.10;1.00;;;;;;5071821;28;20045;-37
2023/03/01 07:07:12;;;;;;;2.97;1.70;;;16.10;1.00;;;;;;5072149;28;20051;-38
2023/03/01 07:09:39;;;;;;;2.97;1.80;;;16.10;1.00;;;;;;5072198;28;20040;-39
2023/03/01 07:12:06;;;;;;;6.30;2.10;;;16.10;1.00;;;;;;5071955;28;20047;-38
2023/03/01 07:14:33;;;;;;;3.17;2.13;;;16.00;1.00;;;;;;5071444;28;20059;-38
2023/03/01 07:17:00;;;;;;;2.80;1.83;;;16.00;1.00;;;;;;5071857;28;20437;-38
2023/03/01 07:19:26;;;;;;;2.55;1.58;;;16.00;1.00;;;;;;5072103;28;20098;-38
2023/03/01 07:21:55;;;;;;;4.03;2.15;;;16.00;1.00;;;;;;5071850;28;20048;-39
2023/03/01 07:24:22;;;;;;;3.88;2.53;;;15.90;1.00;;;;;;5071391;28;20036;-39
2023/03/01 07:26:50;;;;;;;2.75;1.80;;;15.90;1.00;;;;;;5071912;28;20094;-38
2023/03/01 07:29:18;;;;;;;2.63;1.63;;;15.90;1.00;;;;;;5071912;28;20412;-38
2023/03/01 07:31:45;;;;;;;5.50;2.47;;;15.90;1.00;;;;;;5071524;28;20037;-39
2023/03/01 07:34:12;;;;;;;3.53;2.17;;;15.80;1.00;;;;;;5071259;28;20557;-39
2023/03/01 07:36:42;;;;;;;4.13;2.10;;;15.80;1.00;;;;;;5071990;28;20400;-39
2023/03/01 07:39:10;;;;;;;4.25;2.10;;;15.80;1.00;;;;;;5072018;28;20415;-38
2023/03/01 07:41:37;;;;;;;3.55;1.90;;;15.80;1.00;;;;;;5071758;28;20037;-38
2023/03/01 07:44:04;;;;;;;4.13;2.30;;;15.70;1.00;;;;;;5070791;28;20492;-39
2023/03/01 07:46:31;;;;;;;3.38;2.17;;;15.70;1.00;;;;;;5071798;28;20056;-39
2023/03/01 07:48:58;;;;;;;3.88;1.98;;;15.70;1.00;;;;;;5071724;28;20067;-38
2023/03/01 07:51:25;;;;;;;3.35;1.77;;;15.60;1.00;;;;;;5071646;28;20107;-38
2023/03/01 07:53:51;;;;;;;3.42;2.08;;;15.60;1.00;;;;;;5070758;28;20080;-39
2023/03/01 07:56:19;;;;;;;2.60;1.88;;;15.60;1.00;;;;;;5071719;28;20071;-39
2023/03/01 07:58:46;;;;;;;2.72;2.13;;;15.60;1.00;;;;;;5071440;28;20348;-39
2023/03/01 08:01:18;;;;;;;3.42;2.03;;;15.60;1.00;;;;;;5071598;28;20040;-39
2023/03/01 08:03:45;;;;;;;4.70;1.88;;;15.60;1.00;;;;;;5036546;28;20411;-38
2023/03/01 08:06:13;;;;;;;5.57;2.17;;;15.60;1.00;;;;;;5071670;28;20082;-39
2023/03/01 08:08:40;;;;;;;2.42;2.03;;;15.60;1.00;;;;;;5071441;28;20102;-39
2023/03/01 08:11:11;;;;;;;3.47;2.25;;;15.50;1.00;;;;;;5071198;28;20047;-38
2023/03/01 08:13:37;;;;;;;4.82;1.73;;;15.50;1.00;;;;;;5070486;28;20041;-38
2023/03/01 08:16:07;;;;;;;2.83;2.00;;;15.50;1.00;;;;;;5071338;28;20040;-38
2023/03/01 08:18:34;;;;;;;3.05;2.20;;;15.50;1.00;;;;;;5075387;28;20052;-39
2023/03/01 08:21:10;;;;;;;5.28;2.42;;;15.40;1.00;;;;;;5075233;28;20045;-38
2023/03/01 08:23:37;;;;;;;3.03;2.08;;;15.40;1.00;;;;;;5074496;28;20585;-38
2023/03/01 08:26:06;;;;;;;4.85;1.90;;;15.40;1.00;;;;;;5075213;28;20048;-38
2023/03/01 08:28:33;;;;;;;3.10;2.00;;;15.40;1.00;;;;;;5075179;28;20442;-39
2023/03/01 08:31:00;;;;;;;3.60;1.88;;;15.40;1.00;;;;;;5075095;28;20068;-38
2023/03/01 08:33:26;;;;;;;2.90;2.03;;;15.40;1.00;;;;;;5074367;28;20043;-38
2023/03/01 08:36:02;;;;;;;3.83;2.03;;;15.30;1.00;;;;;;5075053;28;20671;-38
2023/03/01 08:38:29;;;;;;;2.90;2.28;;;15.40;1.00;;;;;;5075096;28;20097;-39
2023/03/01 08:41:00;;;;;;;3.47;2.10;;;15.30;1.00;;;;;;5074847;28;20079;-39
2023/03/01 08:43:26;;;;;;;4.35;2.30;;;15.30;1.00;;;;;;5074237;28;20124;-39
2023/03/01 08:45:53;;;;;;;2.78;1.73;;;15.30;1.00;;;;;;5056951;28;20125;-38
2023/03/01 08:48:20;;;;;;;2.33;1.50;;;15.30;1.00;;;;;;5074915;28;20079;-39
2023/03/01 08:50:47;;;;;;;2.38;1.80;;;15.30;1.00;;;;;;5074427;28;20051;-39
2023/03/01 08:53:13;;;;;;;2.90;1.67;;;15.30;1.00;;;;;;5073901;28;20037;-39
2023/03/01 08:55:40;;;;;;;3.70;1.77;;;15.30;1.00;;;;;;5074666;28;20669;-39
2023/03/01 08:58:07;;;;;;;2.67;1.85;;;15.30;1.00;;;;;;5074588;28;20048;-39
2023/03/01 09:00:34;;;;;;;3.50;1.58;;;15.30;1.00;;;;;;5074467;28;20124;-38
2023/03/01 09:03:01;;;;;;;2.85;1.55;;;15.30;1.00;;;;;;5073855;28;20094;-38
2023/03/01 09:05:31;;;;;;;2.75;1.30;;;15.20;1.00;;;;;;5074288;28;20052;-39
2023/03/01 09:07:58;;;;;;;2.60;1.45;;;15.20;1.00;;;;;;5074580;28;20123;-39
2023/03/01 09:10:24;;;;;;;2.72;1.52;;;15.20;1.00;;;;;;5074354;28;20047;-39
2023/03/01 09:12:51;;;;;;;3.08;1.35;;;15.20;1.00;;;;;;5073654;28;20446;-40
2023/03/01 09:15:18;;;;;;;3.65;1.42;;;15.20;1.00;;;;;;5074379;28;20041;-39
2023/03/01 09:17:45;;;;;;;2.97;1.60;;;15.20;1.00;;;;;;5056320;28;20091;-39
2023/03/01 09:20:12;;;;;;;4.22;1.45;;;15.20;1.00;;;;;;5074090;28;20064;-39
2023/03/01 09:22:38;;;;;;;3.15;1.25;;;15.20;1.00;;;;;;5073381;28;20044;-39
2023/03/01 09:25:06;;;;;;;3.13;1.20;;;15.20;1.00;;;;;;5074276;28;20132;-39
2023/03/01 09:27:32;;;;;;;2.40;1.42;;;15.20;1.00;;;;;;5073611;28;20517;-39
2023/03/01 09:29:59;;;;;;;3.38;1.73;;;15.20;1.00;;;;;;5073306;28;20044;-39
2023/03/01 09:32:26;;;;;;;3.45;1.67;;;15.30;1.00;;;;;;5073381;28;20453;-39
2023/03/01 09:35:04;;;;;;;2.05;1.35;;;15.30;1.00;;;;;;5073689;28;20074;-39
2023/03/01 09:37:33;;;;;;;3.60;1.30;;;15.30;1.00;;;;;;5074106;28;20044;-39
2023/03/01 09:40:00;;;;;;;1.90;1.30;;;15.30;1.00;;;;;;5073924;28;20049;-39
2023/03/01 09:42:30;;;;;;;3.60;1.20;;;15.30;1.00;;;;;;5073337;28;20068;-39
2023/03/01 09:44:57;;;;;;;1.88;1.27;;;15.30;1.00;;;;;;5073286;28;20455;-39
2023/03/01 09:47:28;;;;;;;2.15;1.20;;;15.30;1.00;;;;;;5073772;28;20507;-39
2023/03/01 09:50:13;;;;;;;3.35;1.30;;;15.40;1.00;;;;;;5073748;28;20052;-39
2023/03/01 09:52:41;;;;;;;2.00;1.27;;;15.40;1.00;;;;;;5072927;28;20047;-39
2023/03/01 09:55:12;;;;;;;3.30;1.00;;;15.40;1.00;;;;;;5073599;28;20558;-39
2023/03/01 09:57:55;;;;;;;2.05;1.00;;;15.40;1.00;;;;;;5073480;28;20040;-39
2023/03/01 10:00:48;;;;;;;1.77;1.25;;;15.50;1.00;;;;;;5073547;28;20040;-39
2023/03/01 10:03:41;;;;;;;2.60;1.15;;;15.50;1.00;;;;;;5072870;28;20510;-39
2023/03/01 10:06:14;;;;;;;2.00;0.95;;;15.50;1.00;;;;;;5073366;28;20071;-39
2023/03/01 10:09:10;;;;;;;2.17;0.85;;;15.50;1.00;;;;;;5073444;28;20048;-39
2023/03/01 10:11:39;;;;;;;1.58;0.80;;;15.50;1.00;;;;;;5073180;28;20048;-39
2023/03/01 10:14:25;;;;;;;1.88;1.05;;;15.60;1.00;;;;;;5072245;28;20380;-39
2023/03/01 10:16:58;;;;;;;1.90;0.80;;;15.60;1.00;;;;;;5073254;28;20055;-39
2023/03/01 10:19:31;;;;;;;3.10;1.10;;;15.60;1.00;;;;;;5073221;28;20078;-39
2023/03/01 10:22:04;;;;;;;1.55;0.80;;;15.60;1.00;;;;;;5072967;28;20041;-39
2023/03/01 10:24:35;;;;;;;1.83;1.20;;;15.60;1.00;;;;;;5072248;28;20048;-39
2023/03/01 10:27:09;;;;;;;2.60;1.10;;;15.60;1.00;;;;;;5073073;28;20036;-39
2023/03/01 10:29:48;;;;;;;2.33;0.77;;;15.70;1.00;;;;;;5072858;28;20052;-39
2023/03/01 10:32:17;;;;;;;1.42;0.88;;;15.70;1.00;;;;;;5072494;28;20049;-39
2023/03/01 10:34:43;;;;;;;3.25;1.17;;;15.70;1.00;;;;;;5054606;28;20401;-39
2023/03/01 10:37:13;;;;;;;1.73;0.90;;;15.70;1.00;;;;;;5072661;28;20068;-39
2023/03/01 10:39:58;;;;;;;2.83;0.98;;;15.70;1.00;;;;;;5072279;28;20041;-39
2023/03/01 10:42:30;;;;;;;1.77;0.80;;;15.70;1.00;;;;;;5072224;28;20086;-39
2023/03/01 10:44:58;;;;;;;1.10;0.53;;;15.70;1.00;;;;;;5072317;28;20032;-39
2023/03/01 10:47:27;;;;;;;1.92;0.90;;;15.80;1.00;;;;;;5072469;28;20048;-39
2023/03/01 10:50:17;;;;;;;1.65;0.98;;;15.80;1.00;;;;;;5072719;28;20452;-39
2023/03/01 10:53:00;;;;;;;1.27;0.65;;;15.80;1.00;;;;;;5071668;28;20045;-39
2023/03/01 10:55:27;;;;;;;1.60;1.00;;;15.80;1.00;;;;;;5072434;28;20033;-39
2023/03/01 10:58:19;;;;;;;1.38;0.80;;;15.80;1.00;;;;;;5072169;28;20479;-39
2023/03/01 11:01:26;;;;;;;3.28;0.93;;;15.80;1.00;;;;;;5072239;28;20052;-39
2023/03/01 11:04:05;;;;;;;1.42;0.70;;;15.80;1.00;;;;;;5042509;28;20165;-39
2023/03/01 11:06:33;;;;;;;3.17;1.10;;;15.80;1.00;;;;;;5072139;28;20045;-39
2023/03/01 11:09:21;;;;;;;1.50;0.75;;;15.90;1.00;;;;;;5072208;28;20052;-39
2023/03/01 11:11:56;;;;;;;1.98;0.63;;;15.80;1.00;;;;;;5072122;28;20404;-39
2023/03/01 11:14:26;;;;;;;1.30;0.80;;;15.90;1.00;;;;;;5071319;28;20036;-39
2023/03/01 11:17:15;;;;;;;1.52;0.95;;;15.90;1.00;;;;;;5071983;28;20054;-39
2023/03/01 11:19:41;;;;;;;1.70;1.10;;;15.80;1.00;;;;;;5072009;28;20514;-39
2023/03/01 11:22:22;;;;;;;1.17;0.65;;;15.90;1.00;;;;;;5071476;28;20044;-39
2023/03/01 11:24:54;;;;;;;2.42;0.60;;;15.90;1.00;;;;;;5071455;28;20140;-39
2023/03/01 11:27:42;;;;;;;1.52;0.75;;;15.90;1.00;;;;;;5072048;28;20054;-39
2023/03/01 11:30:26;;;;;;;1.52;0.98;;;15.90;1.00;;;;;;5053981;28;20044;-39
2023/03/01 11:33:11;;;;;;;2.70;0.77;;;15.90;1.00;;;;;;5071202;28;20041;-39
2023/03/01 11:36:02;;;;;;;1.48;0.93;;;15.90;1.00;;;;;;5071822;28;20116;-39
2023/03/01 11:38:33;;;;;;;1.85;0.98;;;15.80;1.00;;;;;;5071833;28;20138;-39
2023/03/01 11:41:23;;;;;;;0.98;0.57;;;15.80;1.00;;;;;;5071728;28;20037;-39
2023/03/01 11:44:01;;;;;;;2.03;0.93;;;15.90;1.00;;;;;;5070926;28;20044;-39
2023/03/01 11:46:39;;;;;;;2.92;1.27;;;15.80;1.00;;;;;;5071974;28;20381;-39
2023/03/01 11:49:43;;;;;;;1.60;0.90;;;15.80;1.00;;;;;;5071663;28;20492;-39
2023/03/01 11:52:35;;;;;;;2.30;1.13;;;15.80;1.00;;;;;;5070651;28;20044;-38
2023/03/01 11:55:12;;;;;;;1.10;0.70;;;15.80;1.00;;;;;;5071561;28;20456;-39
2023/03/01 11:57:41;;;;;;;2.35;0.75;;;15.80;1.00;;;;;;5071587;28;20553;-39
2023/03/01 12:00:31;;;;;;;2.17;0.85;;;15.80;1.00;;;;;;5071427;28;20087;-39
2023/03/01 12:03:04;;;;;;;1.17;0.68;;;15.80;1.00;;;;;;5070915;28;20510;-39
2023/03/01 12:05:43;;;;;;;2.37;0.97;;;15.80;1.00;;;;;;5071595;28;20048;-39
2023/03/01 12:08:31;;;;;;;1.85;1.00;;;15.80;1.00;;;;;;5071524;28;20299;-39
2023/03/01 12:11:03;;;;;;;4.25;1.10;;;15.80;1.00;;;;;;5071300;28;20048;-39
2023/03/01 12:14:02;;;;;;;1.33;0.83;;;15.80;1.00;;;;;;5070773;28;20082;-39
2023/03/01 12:16:49;;;;;;;1.52;0.80;;;15.80;1.00;;;;;;5071458;28;20049;-39
2023/03/01 12:19:23;;;;;;;2.53;0.88;;;15.70;1.00;;;;;;5057492;28;20048;-39
2023/03/01 12:22:17;;;;;;;1.92;1.13;;;15.70;1.00;;;;;;5075716;22;20049;-35
2023/03/01 12:25:13;;;;;;;2.60;1.00;;;15.70;1.00;;;;;;5065631;28;20064;-35
2023/03/01 12:27:39;;;;;;;3.40;0.77;;;15.70;1.00;;;;;;5065358;28;20060;-35
2023/03/01 12:30:17;;;;;;;1.52;0.90;;;15.70;1.00;;;;;;5051347;28;20064;-35
2023/03/01 12:32:55;;;;;;;1.50;1.00;;;15.70;1.00;;;;;;5070499;28;20056;-36
2023/03/01 12:35:40;;;;;;;1.52;0.88;;;15.70;1.00;;;;;;5071187;28;20037;-36
2023/03/01 12:38:10;;;;;;;1.30;0.82;;;15.70;1.00;;;;;;5071198;28;20044;-36
2023/03/01 12:41:03;;;;;;;3.65;0.80;;;15.60;1.00;;;;;;5062535;28;20040;-43
2023/03/01 12:43:57;;;;;;;2.58;0.95;;;15.60;1.00;;;;;;5050300;28;20507;-36
2023/03/01 12:46:46;;;;;;;1.67;0.90;;;15.60;1.00;;;;;;5051154;28;20092;-36
2023/03/01 12:49:14;;;;;;;3.20;1.38;;;15.60;1.00;;;;;;5051154;28;20045;-36
2023/03/01 12:51:51;;;;;;;1.88;0.75;;;15.60;1.00;;;;;;5050975;28;20067;-36
2023/03/01 12:54:30;;;;;;;2.45;1.05;;;15.60;1.00;;;;;;5050741;28;20435;-36
2023/03/01 12:57:36;;;;;;;2.65;1.08;;;15.60;1.00;;;;;;5051106;28;20460;-36
2023/03/01 13:00:26;;;;;;;2.50;1.15;;;15.60;1.00;;;;;;5028570;28;20061;-36
2023/03/01 13:03:21;;;;;;;3.83;1.17;;;15.60;1.00;;;;;;5071327;28;20048;-36
2023/03/01 13:06:06;;;;;;;3.30;1.10;;;15.60;1.00;;;;;;5074543;28;20040;-36
2023/03/01 13:08:54;;;;;;;2.25;1.17;;;15.60;1.00;;;;;;5074425;28;20071;-36
2023/03/01 13:11:23;;;;;;;2.10;1.08;;;15.50;1.00;;;;;;5074460;28;20128;-36
2023/03/01 13:13:51;;;;;;;2.08;1.08;;;15.50;1.00;;;;;;5073938;28;20044;-37
2023/03/01 13:16:40;;;;;;;2.65;1.25;;;15.50;1.00;;;;;;5074468;28;20510;-36
2023/03/01 13:19:18;;;;;;;3.50;1.38;;;15.50;1.00;;;;;;5074316;28;20045;-35
2023/03/01 13:21:48;;;;;;;4.85;1.40;;;15.50;1.00;;;;;;5074206;28;20397;-35
2023/03/01 13:25:02;;;;;;;1.80;1.10;;;15.40;1.00;;;;;;5073631;28;20049;-35